sensor_id;sensor_type;location;lat;lon;timestamp;pressure;altitude;pressure_sealevel;temperature;humidity
55289;BME280;41154;45.394;5.734;2022-10-16T00:01:28;97011.13;;;11.07;100.00
55289;BME280;41154;45.394;5.734;2022-10-16T00:03:55;97004.66;;;11.03;100.00
55289;BME280;41154;45.394;5.734;2022-10-16T00:06:22;97008.69;;;11.06;100.00
55289;BME280;41154;45.394;5.734;2022-10-16T00:08:48;97003.91;;;10.86;100.00
55289;BME280;41154;45.394;5.734;2022-10-16T00:11:26;97010.47;;;10.95;100.00
55289;BME280;41154;45.394;5.734;2022-10-16T00:13:55;97005.06;;;10.90;100.00
55289;BME280;41154;45.394;5.734;2022-10-16T00:16:21;97011.47;;;10.89;100.00
55289;BME280;41154;45.394;5.734;2022-10-16T00:18:47;97005.00;;;10.85;100.00
55289;BME280;41154;45.394;5.734;2022-10-16T00:21:15;97000.94;;;10.82;100.00
55289;BME280;41154;45.394;5.734;2022-10-16T00:23:41;97010.06;;;10.37;100.00
55289;BME280;41154;45.394;5.734;2022-10-16T00:26:11;97014.19;;;10.45;100.00
55289;BME280;41154;45.394;5.734;2022-10-16T00:28:38;96999.66;;;10.23;100.00
55289;BME280;41154;45.394;5.734;2022-10-16T00:31:10;97004.50;;;10.66;100.00
55289;BME280;41154;45.394;5.734;2022-10-16T00:33:38;97008.41;;;10.36;100.00
55289;BME280;41154;45.394;5.734;2022-10-16T00:36:06;97013.22;;;10.34;100.00
55289;BME280;41154;45.394;5.734;2022-10-16T00:38:32;97014.88;;;10.35;100.00
55289;BME280;41154;45.394;5.734;2022-10-16T00:40:59;97018.91;;;10.37;100.00
55289;BME280;41154;45.394;5.734;2022-10-16T00:46:01;97031.03;;;10.62;100.00
55289;BME280;41154;45.394;5.734;2022-10-16T00:48:27;97038.38;;;10.50;100.00
55289;BME280;41154;45.394;5.734;2022-10-16T00:50:53;97034.09;;;10.49;100.00
55289;BME280;41154;45.394;5.734;2022-10-16T00:53:20;97039.50;;;10.54;100.00
55289;BME280;41154;45.394;5.734;2022-10-16T00:55:47;97035.88;;;10.65;100.00
55289;BME280;41154;45.394;5.734;2022-10-16T00:58:12;97030.16;;;10.78;100.00
55289;BME280;41154;45.394;5.734;2022-10-16T01:00:38;97047.13;;;10.62;100.00
55289;BME280;41154;45.394;5.734;2022-10-16T01:03:23;97044.47;;;10.67;100.00
55289;BME280;41154;45.394;5.734;2022-10-16T01:06:18;97038.94;;;10.52;100.00
55289;BME280;41154;45.394;5.734;2022-10-16T01:12:25;97037.88;;;10.53;100.00
55289;BME280;41154;45.394;5.734;2022-10-16T01:14:32;97047.66;;;10.42;100.00
55289;BME280;41154;45.394;5.734;2022-10-16T01:17:28;97051.34;;;10.58;100.00
55289;BME280;41154;45.394;5.734;2022-10-16T01:22:25;97054.09;;;10.41;100.00
55289;BME280;41154;45.394;5.734;2022-10-16T01:24:54;97059.72;;;10.39;100.00
55289;BME280;41154;45.394;5.734;2022-10-16T01:27:25;97061.06;;;10.64;100.00
55289;BME280;41154;45.394;5.734;2022-10-16T01:30:02;97051.78;;;10.72;100.00
55289;BME280;41154;45.394;5.734;2022-10-16T01:32:39;97062.91;;;10.58;100.00
55289;BME280;41154;45.394;5.734;2022-10-16T01:35:17;97061.06;;;10.64;100.00
55289;BME280;41154;45.394;5.734;2022-10-16T01:40:16;97063.16;;;10.57;100.00
55289;BME280;41154;45.394;5.734;2022-10-16T01:42:56;97074.31;;;10.49;100.00
55289;BME280;41154;45.394;5.734;2022-10-16T01:45:25;97063.47;;;10.60;100.00
55289;BME280;41154;45.394;5.734;2022-10-16T01:47:53;97071.38;;;10.50;100.00
55289;BME280;41154;45.394;5.734;2022-10-16T01:50:20;97062.97;;;10.64;100.00
55289;BME280;41154;45.394;5.734;2022-10-16T01:52:53;97070.31;;;10.51;100.00
55289;BME280;41154;45.394;5.734;2022-10-16T01:55:30;97071.69;;;10.54;100.00
55289;BME280;41154;45.394;5.734;2022-10-16T01:57:59;97070.44;;;10.39;100.00
55289;BME280;41154;45.394;5.734;2022-10-16T02:00:31;97077.78;;;10.32;100.00
55289;BME280;41154;45.394;5.734;2022-10-16T02:02:58;97069.75;;;10.32;100.00
55289;BME280;41154;45.394;5.734;2022-10-16T02:05:54;97072.66;;;10.65;100.00
55289;BME280;41154;45.394;5.734;2022-10-16T02:08:22;97070.81;;;10.31;100.00
55289;BME280;41154;45.394;5.734;2022-10-16T02:10:49;97074.81;;;10.29;100.00
55289;BME280;41154;45.394;5.734;2022-10-16T02:13:26;97078.47;;;10.22;100.00
55289;BME280;41154;45.394;5.734;2022-10-16T02:15:53;97079.50;;;10.21;100.00
55289;BME280;41154;45.394;5.734;2022-10-16T02:18:20;97080.72;;;10.31;100.00
55289;BME280;41154;45.394;5.734;2022-10-16T02:23:35;97078.97;;;10.36;100.00
55289;BME280;41154;45.394;5.734;2022-10-16T02:26:04;97086.81;;;10.26;100.00
55289;BME280;41154;45.394;5.734;2022-10-16T02:28:42;97082.75;;;10.40;100.00
55289;BME280;41154;45.394;5.734;2022-10-16T02:31:12;97092.69;;;10.40;100.00
55289;BME280;41154;45.394;5.734;2022-10-16T02:33:40;97090.56;;;10.25;100.00
55289;BME280;41154;45.394;5.734;2022-10-16T02:36:07;97089.34;;;10.16;100.00
55289;BME280;41154;45.394;5.734;2022-10-16T02:38:33;97091.53;;;10.19;100.00
55289;BME280;41154;45.394;5.734;2022-10-16T02:40:59;97089.19;;;10.39;100.00
55289;BME280;41154;45.394;5.734;2022-10-16T02:43:25;97081.78;;;10.47;100.00
55289;BME280;41154;45.394;5.734;2022-10-16T02:45:51;97094.44;;;10.17;100.00
55289;BME280;41154;45.394;5.734;2022-10-16T02:48:17;97074.34;;;10.15;100.00
55289;BME280;41154;45.394;5.734;2022-10-16T02:50:43;97097.25;;;10.05;100.00
55289;BME280;41154;45.394;5.734;2022-10-16T02:53:09;97087.38;;;10.28;100.00
55289;BME280;41154;45.394;5.734;2022-10-16T02:55:34;97087.06;;;10.24;100.00
55289;BME280;41154;45.394;5.734;2022-10-16T02:58:00;97089.03;;;10.46;100.00
55289;BME280;41154;45.394;5.734;2022-10-16T03:00:26;97085.53;;;10.46;100.00
55289;BME280;41154;45.394;5.734;2022-10-16T03:02:52;97078.38;;;10.34;100.00
55289;BME280;41154;45.394;5.734;2022-10-16T03:05:18;97086.53;;;10.39;100.00
55289;BME280;41154;45.394;5.734;2022-10-16T03:07:44;97085.03;;;10.49;100.00
55289;BME280;41154;45.394;5.734;2022-10-16T03:10:09;97085.34;;;10.52;100.00
55289;BME280;41154;45.394;5.734;2022-10-16T03:12:35;97093.47;;;10.57;100.00
55289;BME280;41154;45.394;5.734;2022-10-16T03:15:02;97095.41;;;10.84;100.00
55289;BME280;41154;45.394;5.734;2022-10-16T03:17:29;97095.22;;;10.69;100.00
55289;BME280;41154;45.394;5.734;2022-10-16T03:19:57;97104.16;;;10.74;100.00
55289;BME280;41154;45.394;5.734;2022-10-16T03:22:23;97092.47;;;10.64;100.00
55289;BME280;41154;45.394;5.734;2022-10-16T03:24:50;97100.53;;;10.47;100.00
55289;BME280;41154;45.394;5.734;2022-10-16T03:27:16;97098.78;;;10.35;100.00
55289;BME280;41154;45.394;5.734;2022-10-16T03:29:42;97099.44;;;10.42;100.00
55289;BME280;41154;45.394;5.734;2022-10-16T03:32:14;97096.81;;;10.48;100.00
55289;BME280;41154;45.394;5.734;2022-10-16T03:34:40;97099.50;;;10.48;100.00
55289;BME280;41154;45.394;5.734;2022-10-16T03:37:06;97097.44;;;10.55;100.00
55289;BME280;41154;45.394;5.734;2022-10-16T03:39:31;97084.84;;;10.55;100.00
55289;BME280;41154;45.394;5.734;2022-10-16T03:41:57;97091.22;;;10.71;100.00
55289;BME280;41154;45.394;5.734;2022-10-16T03:44:23;97092.88;;;10.72;100.00
55289;BME280;41154;45.394;5.734;2022-10-16T03:46:49;97081.88;;;10.96;100.00
55289;BME280;41154;45.394;5.734;2022-10-16T03:49:15;97086.00;;;11.31;100.00
55289;BME280;41154;45.394;5.734;2022-10-16T03:51:40;97083.50;;;10.97;100.00
55289;BME280;41154;45.394;5.734;2022-10-16T03:54:06;97079.69;;;10.71;100.00
55289;BME280;41154;45.394;5.734;2022-10-16T03:56:32;97074.50;;;10.64;100.00
55289;BME280;41154;45.394;5.734;2022-10-16T03:58:58;97097.03;;;10.63;100.00
55289;BME280;41154;45.394;5.734;2022-10-16T04:01:24;97079.03;;;10.41;100.00
55289;BME280;41154;45.394;5.734;2022-10-16T04:03:50;97086.88;;;10.31;100.00
55289;BME280;41154;45.394;5.734;2022-10-16T04:06:17;97090.66;;;10.30;100.00
55289;BME280;41154;45.394;5.734;2022-10-16T04:08:43;97079.47;;;10.33;100.00
55289;BME280;41154;45.394;5.734;2022-10-16T04:11:09;97092.41;;;10.58;100.00
55289;BME280;41154;45.394;5.734;2022-10-16T04:13:35;97088.34;;;10.56;100.00
55289;BME280;41154;45.394;5.734;2022-10-16T04:16:01;97089.56;;;10.48;100.00
55289;BME280;41154;45.394;5.734;2022-10-16T04:18:27;97087.72;;;10.49;100.00
55289;BME280;41154;45.394;5.734;2022-10-16T04:20:54;97090.41;;;10.49;100.00
55289;BME280;41154;45.394;5.734;2022-10-16T04:23:20;97094.38;;;10.46;100.00
55289;BME280;41154;45.394;5.734;2022-10-16T04:25:46;97088.63;;;10.37;100.00
55289;BME280;41154;45.394;5.734;2022-10-16T04:28:12;97100.41;;;10.36;100.00
55289;BME280;41154;45.394;5.734;2022-10-16T04:30:38;97099.09;;;10.39;100.00
55289;BME280;41154;45.394;5.734;2022-10-16T04:33:04;97103.31;;;10.52;100.00
55289;BME280;41154;45.394;5.734;2022-10-16T04:35:30;97098.56;;;10.59;100.00
55289;BME280;41154;45.394;5.734;2022-10-16T04:37:59;97104.22;;;10.40;100.00
55289;BME280;41154;45.394;5.734;2022-10-16T04:40:24;97110.06;;;10.37;100.00
55289;BME280;41154;45.394;5.734;2022-10-16T04:42:50;97110.56;;;10.34;100.00
55289;BME280;41154;45.394;5.734;2022-10-16T04:45:16;97112.97;;;10.53;100.00
55289;BME280;41154;45.394;5.734;2022-10-16T04:47:42;97110.72;;;10.45;100.00
55289;BME280;41154;45.394;5.734;2022-10-16T04:50:07;97123.31;;;10.44;100.00
55289;BME280;41154;45.394;5.734;2022-10-16T04:52:33;97120.25;;;10.35;100.00
55289;BME280;41154;45.394;5.734;2022-10-16T04:54:59;97118.00;;;10.32;100.00
55289;BME280;41154;45.394;5.734;2022-10-16T04:57:28;97116.31;;;10.26;100.00
55289;BME280;41154;45.394;5.734;2022-10-16T04:59:55;97106.16;;;10.28;100.00
55289;BME280;41154;45.394;5.734;2022-10-16T05:02:21;97110.38;;;10.24;100.00
55289;BME280;41154;45.394;5.734;2022-10-16T05:04:47;97106.31;;;10.21;100.00
55289;BME280;41154;45.394;5.734;2022-10-16T05:07:12;97111.84;;;10.15;100.00
55289;BME280;41154;45.394;5.734;2022-10-16T05:09:38;97112.25;;;10.06;100.00
55289;BME280;41154;45.394;5.734;2022-10-16T05:12:04;97119.66;;;10.16;100.00
55289;BME280;41154;45.394;5.734;2022-10-16T05:14:30;97126.31;;;10.14;100.00
55289;BME280;41154;45.394;5.734;2022-10-16T05:16:56;97125.88;;;10.22;100.00
55289;BME280;41154;45.394;5.734;2022-10-16T05:19:22;97125.97;;;9.93;100.00
55289;BME280;41154;45.394;5.734;2022-10-16T05:21:47;97136.03;;;10.03;100.00
55289;BME280;41154;45.394;5.734;2022-10-16T05:24:13;97140.34;;;9.87;100.00
55289;BME280;41154;45.394;5.734;2022-10-16T05:26:39;97139.22;;;10.00;100.00
55289;BME280;41154;45.394;5.734;2022-10-16T05:29:05;97136.84;;;10.03;100.00
55289;BME280;41154;45.394;5.734;2022-10-16T05:31:30;97143.53;;;10.01;100.00
55289;BME280;41154;45.394;5.734;2022-10-16T05:33:59;97138.19;;;10.18;100.00
55289;BME280;41154;45.394;5.734;2022-10-16T05:36:25;97128.59;;;9.88;100.00
55289;BME280;41154;45.394;5.734;2022-10-16T05:38:51;97134.41;;;10.02;100.00
55289;BME280;41154;45.394;5.734;2022-10-16T05:41:17;97122.31;;;9.82;100.00
55289;BME280;41154;45.394;5.734;2022-10-16T05:43:50;97128.16;;;9.50;100.00
55289;BME280;41154;45.394;5.734;2022-10-16T05:46:16;97118.13;;;9.58;100.00
55289;BME280;41154;45.394;5.734;2022-10-16T05:48:42;97135.41;;;9.50;100.00
55289;BME280;41154;45.394;5.734;2022-10-16T05:51:13;97129.81;;;9.51;100.00
55289;BME280;41154;45.394;5.734;2022-10-16T05:53:39;97134.69;;;9.54;100.00
55289;BME280;41154;45.394;5.734;2022-10-16T05:56:08;97139.72;;;9.51;100.00
55289;BME280;41154;45.394;5.734;2022-10-16T05:58:36;97142.75;;;9.71;100.00
55289;BME280;41154;45.394;5.734;2022-10-16T06:01:11;97138.63;;;9.81;100.00
55289;BME280;41154;45.394;5.734;2022-10-16T06:03:37;97137.88;;;9.68;100.00
55289;BME280;41154;45.394;5.734;2022-10-16T06:06:14;97142.13;;;9.81;100.00
55289;BME280;41154;45.394;5.734;2022-10-16T06:08:42;97134.06;;;9.81;100.00
55289;BME280;41154;45.394;5.734;2022-10-16T06:11:13;97134.06;;;9.81;100.00
55289;BME280;41154;45.394;5.734;2022-10-16T06:13:39;97124.81;;;9.89;100.00
55289;BME280;41154;45.394;5.734;2022-10-16T06:16:09;97143.22;;;9.97;100.00
55289;BME280;41154;45.394;5.734;2022-10-16T06:18:35;97138.66;;;9.98;100.00
55289;BME280;41154;45.394;5.734;2022-10-16T06:21:10;97147.22;;;9.83;100.00
55289;BME280;41154;45.394;5.734;2022-10-16T06:23:37;97136.19;;;9.79;100.00
55289;BME280;41154;45.394;5.734;2022-10-16T06:26:14;97132.63;;;10.07;100.00
55289;BME280;41154;45.394;5.734;2022-10-16T06:28:40;97145.69;;;9.87;100.00
55289;BME280;41154;45.394;5.734;2022-10-16T06:31:08;97144.66;;;10.22;100.00
55289;BME280;41154;45.394;5.734;2022-10-16T06:33:35;97142.94;;;10.16;100.00
55289;BME280;41154;45.394;5.734;2022-10-16T06:36:13;97142.94;;;10.16;100.00
55289;BME280;41154;45.394;5.734;2022-10-16T06:38:40;97139.88;;;10.24;100.00
55289;BME280;41154;45.394;5.734;2022-10-16T06:41:06;97156.28;;;10.28;100.00
55289;BME280;41154;45.394;5.734;2022-10-16T06:43:33;97151.16;;;10.09;100.00
55289;BME280;41154;45.394;5.734;2022-10-16T06:46:01;97157.38;;;9.81;100.00
55289;BME280;41154;45.394;5.734;2022-10-16T06:48:29;97154.56;;;10.04;100.00
55289;BME280;41154;45.394;5.734;2022-10-16T06:51:16;97149.38;;;10.15;100.00
55289;BME280;41154;45.394;5.734;2022-10-16T06:53:44;97158.22;;;9.98;100.00
55289;BME280;41154;45.394;5.734;2022-10-16T06:56:20;97156.50;;;10.09;100.00
55289;BME280;41154;45.394;5.734;2022-10-16T06:58:47;97145.63;;;10.16;100.00
55289;BME280;41154;45.394;5.734;2022-10-16T07:01:14;97154.34;;;10.23;100.00
55289;BME280;41154;45.394;5.734;2022-10-16T07:03:42;97165.84;;;10.23;100.00
55289;BME280;41154;45.394;5.734;2022-10-16T07:06:10;97160.41;;;10.18;100.00
55289;BME280;41154;45.394;5.734;2022-10-16T07:08:52;97165.72;;;10.30;100.00
55289;BME280;41154;45.394;5.734;2022-10-16T07:11:20;97168.78;;;10.22;100.00
55289;BME280;41154;45.394;5.734;2022-10-16T07:13:47;97186.72;;;10.33;100.00
55289;BME280;41154;45.394;5.734;2022-10-16T07:16:18;97192.41;;;10.25;100.00
55289;BME280;41154;45.394;5.734;2022-10-16T07:18:45;97203.25;;;10.30;100.00
55289;BME280;41154;45.394;5.734;2022-10-16T07:21:14;97212.28;;;10.58;100.00
55289;BME280;41154;45.394;5.734;2022-10-16T07:23:41;97200.38;;;10.49;100.00
55289;BME280;41154;45.394;5.734;2022-10-16T07:26:09;97215.78;;;10.41;100.00
55289;BME280;41154;45.394;5.734;2022-10-16T07:28:35;97222.53;;;10.44;100.00
55289;BME280;41154;45.394;5.734;2022-10-16T07:31:07;97231.47;;;10.50;100.00
55289;BME280;41154;45.394;5.734;2022-10-16T07:33:34;97222.88;;;10.48;100.00
55289;BME280;41154;45.394;5.734;2022-10-16T07:39:28;97216.66;;;10.30;100.00
55289;BME280;41154;45.394;5.734;2022-10-16T07:41:54;97216.16;;;10.16;100.00
55289;BME280;41154;45.394;5.734;2022-10-16T07:44:20;97222.69;;;10.37;100.00
55289;BME280;41154;45.394;5.734;2022-10-16T07:46:46;97215.06;;;10.46;100.00
55289;BME280;41154;45.394;5.734;2022-10-16T07:49:11;97208.75;;;11.30;100.00
55289;BME280;41154;45.394;5.734;2022-10-16T07:51:37;97216.19;;;14.24;100.00
55289;BME280;41154;45.394;5.734;2022-10-16T07:54:04;97212.06;;;13.85;100.00
55289;BME280;41154;45.394;5.734;2022-10-16T07:56:31;97210.16;;;15.30;100.00
55289;BME280;41154;45.394;5.734;2022-10-16T07:58:58;97208.41;;;16.54;100.00
55289;BME280;41154;45.394;5.734;2022-10-16T08:01:23;97209.44;;;14.98;100.00
55289;BME280;41154;45.394;5.734;2022-10-16T08:03:50;97217.88;;;14.71;100.00
55289;BME280;41154;45.394;5.734;2022-10-16T08:06:17;97222.41;;;16.66;100.00
55289;BME280;41154;45.394;5.734;2022-10-16T08:08:43;97216.81;;;17.89;100.00
55289;BME280;41154;45.394;5.734;2022-10-16T08:11:09;97229.66;;;17.78;100.00
55289;BME280;41154;45.394;5.734;2022-10-16T08:13:35;97217.81;;;18.50;100.00
55289;BME280;41154;45.394;5.734;2022-10-16T08:16:01;97253.91;;;17.45;100.00
55289;BME280;41154;45.394;5.734;2022-10-16T08:18:29;97247.13;;;19.47;100.00
55289;BME280;41154;45.394;5.734;2022-10-16T08:20:56;97257.09;;;19.37;100.00
55289;BME280;41154;45.394;5.734;2022-10-16T08:23:22;97261.38;;;19.85;100.00
55289;BME280;41154;45.394;5.734;2022-10-16T08:25:48;97258.84;;;20.39;100.00
55289;BME280;41154;45.394;5.734;2022-10-16T08:28:14;97264.59;;;21.51;100.00
55289;BME280;41154;45.394;5.734;2022-10-16T08:30:41;97276.81;;;21.31;100.00
55289;BME280;41154;45.394;5.734;2022-10-16T08:33:06;97269.94;;;21.02;100.00
55289;BME280;41154;45.394;5.734;2022-10-16T08:35:32;97281.00;;;19.40;100.00
55289;BME280;41154;45.394;5.734;2022-10-16T08:37:58;97282.22;;;20.04;100.00
55289;BME280;41154;45.394;5.734;2022-10-16T08:40:26;97277.06;;;21.21;100.00
55289;BME280;41154;45.394;5.734;2022-10-16T08:43:06;97280.72;;;21.70;100.00
55289;BME280;41154;45.394;5.734;2022-10-16T08:48:06;97299.72;;;22.76;89.82
55289;BME280;41154;45.394;5.734;2022-10-16T08:50:38;97293.59;;;23.62;87.43
55289;BME280;41154;45.394;5.734;2022-10-16T08:53:05;97290.56;;;24.23;81.74
55289;BME280;41154;45.394;5.734;2022-10-16T08:55:43;97288.59;;;24.32;81.15
55289;BME280;41154;45.394;5.734;2022-10-16T08:58:12;97290.25;;;22.56;90.76
55289;BME280;41154;45.394;5.734;2022-10-16T09:00:39;97289.56;;;21.76;91.48
55289;BME280;41154;45.394;5.734;2022-10-16T09:03:14;97291.59;;;22.10;98.29
55289;BME280;41154;45.394;5.734;2022-10-16T09:16:53;97305.34;;;21.25;87.61
55289;BME280;41154;45.394;5.734;2022-10-16T09:19:37;97301.13;;;21.18;89.26
55289;BME280;41154;45.394;5.734;2022-10-16T09:22:17;97299.00;;;20.47;97.36
55289;BME280;41154;45.394;5.734;2022-10-16T09:24:43;97300.66;;;20.07;100.00
55289;BME280;41154;45.394;5.734;2022-10-16T09:27:14;97297.41;;;19.49;100.00
55289;BME280;41154;45.394;5.734;2022-10-16T09:29:40;97299.88;;;19.79;100.00
55289;BME280;41154;45.394;5.734;2022-10-16T09:32:13;97302.88;;;19.63;100.00
55289;BME280;41154;45.394;5.734;2022-10-16T09:34:54;97306.50;;;19.45;100.00
55289;BME280;41154;45.394;5.734;2022-10-16T09:37:23;97305.34;;;19.32;100.00
55289;BME280;41154;45.394;5.734;2022-10-16T09:39:54;97299.06;;;19.78;100.00
55289;BME280;41154;45.394;5.734;2022-10-16T09:42:45;97298.41;;;19.39;100.00
55289;BME280;41154;45.394;5.734;2022-10-16T09:45:23;97301.25;;;19.48;100.00
55289;BME280;41154;45.394;5.734;2022-10-16T09:47:50;97290.19;;;19.86;100.00
55289;BME280;41154;45.394;5.734;2022-10-16T09:50:26;97287.97;;;19.61;100.00
55289;BME280;41154;45.394;5.734;2022-10-16T09:53:13;97291.66;;;19.51;100.00
55289;BME280;41154;45.394;5.734;2022-10-16T09:55:51;97284.75;;;19.86;100.00
55289;BME280;41154;45.394;5.734;2022-10-16T09:58:17;97294.81;;;19.58;100.00
55289;BME280;41154;45.394;5.734;2022-10-16T10:00:53;97285.22;;;20.02;100.00
55289;BME280;41154;45.394;5.734;2022-10-16T10:03:40;97289.75;;;19.37;100.00
55289;BME280;41154;45.394;5.734;2022-10-16T10:06:17;97280.09;;;19.73;100.00
55289;BME280;41154;45.394;5.734;2022-10-16T10:11:37;97266.78;;;19.44;100.00
55289;BME280;41154;45.394;5.734;2022-10-16T10:14:05;97261.06;;;18.98;100.00
55289;BME280;41154;45.394;5.734;2022-10-16T10:16:31;97268.19;;;19.41;100.00
55289;BME280;41154;45.394;5.734;2022-10-16T10:19:00;97276.03;;;19.43;100.00
55289;BME280;41154;45.394;5.734;2022-10-16T10:21:26;97269.00;;;19.42;100.00
55289;BME280;41154;45.394;5.734;2022-10-16T10:23:55;97266.72;;;19.77;100.00
55289;BME280;41154;45.394;5.734;2022-10-16T10:26:26;97270.44;;;19.95;100.00
55289;BME280;41154;45.394;5.734;2022-10-16T10:29:19;97256.28;;;19.65;100.00
55289;BME280;41154;45.394;5.734;2022-10-16T10:37:28;97252.38;;;19.57;100.00
55289;BME280;41154;45.394;5.734;2022-10-16T10:40:11;97256.41;;;19.73;100.00
55289;BME280;41154;45.394;5.734;2022-10-16T10:43:06;97258.44;;;19.40;100.00
55289;BME280;41154;45.394;5.734;2022-10-16T10:45:46;97250.47;;;19.71;100.00
55289;BME280;41154;45.394;5.734;2022-10-16T10:51:16;97247.75;;;19.99;97.94
55289;BME280;41154;45.394;5.734;2022-10-16T10:59:52;97248.53;;;20.14;96.79
55289;BME280;41154;45.394;5.734;2022-10-16T11:02:40;97245.41;;;20.06;98.77
55289;BME280;41154;45.394;5.734;2022-10-16T11:16:01;97246.91;;;20.49;93.24
55289;BME280;41154;45.394;5.734;2022-10-16T11:18:52;97249.69;;;20.58;95.41
55289;BME280;41154;45.394;5.734;2022-10-16T11:21:22;97240.72;;;20.57;95.28
55289;BME280;41154;45.394;5.734;2022-10-16T11:24:14;97241.25;;;20.45;95.97
55289;BME280;41154;45.394;5.734;2022-10-16T11:26:46;97232.56;;;20.80;93.35
55289;BME280;41154;45.394;5.734;2022-10-16T11:29:29;97233.41;;;20.89;97.63
55289;BME280;41154;45.394;5.734;2022-10-16T11:32:16;97241.88;;;21.10;97.26
55289;BME280;41154;45.394;5.734;2022-10-16T11:34:51;97239.50;;;21.17;96.01
55289;BME280;41154;45.394;5.734;2022-10-16T11:37:21;97233.94;;;21.23;96.03
55289;BME280;41154;45.394;5.734;2022-10-16T11:39:50;97230.97;;;21.10;94.35
55289;BME280;41154;45.394;5.734;2022-10-16T11:42:37;97230.91;;;21.01;94.01
55289;BME280;41154;45.394;5.734;2022-10-16T11:45:29;97225.44;;;21.24;93.11
55289;BME280;41154;45.394;5.734;2022-10-16T11:50:48;97227.97;;;21.21;92.40
55289;BME280;41154;45.394;5.734;2022-10-16T11:53:59;97231.84;;;21.19;93.96
55289;BME280;41154;45.394;5.734;2022-10-16T11:56:28;97220.09;;;20.88;92.29
55289;BME280;41154;45.394;5.734;2022-10-16T11:59:03;97212.19;;;21.09;91.70
55289;BME280;41154;45.394;5.734;2022-10-16T12:01:41;97203.50;;;21.38;91.84
55289;BME280;41154;45.394;5.734;2022-10-16T12:07:08;97207.13;;;21.56;92.35
55289;BME280;41154;45.394;5.734;2022-10-16T12:09:39;97210.19;;;21.63;91.99
55289;BME280;41154;45.394;5.734;2022-10-16T12:12:26;97209.03;;;21.56;93.22
55289;BME280;41154;45.394;5.734;2022-10-16T12:15:01;97198.59;;;21.58;91.78
55289;BME280;41154;45.394;5.734;2022-10-16T12:17:34;97203.91;;;21.63;95.05
55289;BME280;41154;45.394;5.734;2022-10-16T12:20:31;97204.75;;;21.72;91.09
55289;BME280;41154;45.394;5.734;2022-10-16T12:23:02;97198.31;;;21.68;95.68
55289;BME280;41154;45.394;5.734;2022-10-16T12:25:37;97194.44;;;21.69;94.89
55289;BME280;41154;45.394;5.734;2022-10-16T12:30:41;97194.91;;;21.53;94.97
55289;BME280;41154;45.394;5.734;2022-10-16T12:33:28;97207.34;;;21.77;96.88
55289;BME280;41154;45.394;5.734;2022-10-16T12:35:57;97199.31;;;21.81;96.08
55289;BME280;41154;45.394;5.734;2022-10-16T12:38:30;97196.09;;;21.87;97.30
55289;BME280;41154;45.394;5.734;2022-10-16T12:41:03;97196.91;;;21.88;95.87
55289;BME280;41154;45.394;5.734;2022-10-16T12:46:20;97201.75;;;21.91;96.40
55289;BME280;41154;45.394;5.734;2022-10-16T12:48:46;97196.41;;;21.77;96.01
55289;BME280;41154;45.394;5.734;2022-10-16T12:54:14;97186.00;;;21.88;95.17
55289;BME280;41154;45.394;5.734;2022-10-16T12:56:56;97198.69;;;21.93;96.12
55289;BME280;41154;45.394;5.734;2022-10-16T13:02:49;97191.97;;;22.16;93.64
55289;BME280;41154;45.394;5.734;2022-10-16T13:17:19;97171.53;;;22.14;91.65
55289;BME280;41154;45.394;5.734;2022-10-16T13:22:51;97173.47;;;22.48;91.60
55289;BME280;41154;45.394;5.734;2022-10-16T13:25:27;97171.72;;;22.52;89.75
55289;BME280;41154;45.394;5.734;2022-10-16T13:28:08;97160.00;;;22.52;90.14
55289;BME280;41154;45.394;5.734;2022-10-16T13:30:43;97169.16;;;22.47;88.21
55289;BME280;41154;45.394;5.734;2022-10-16T13:33:17;97172.03;;;22.51;87.83
55289;BME280;41154;45.394;5.734;2022-10-16T13:35:50;97166.91;;;22.49;88.11
55289;BME280;41154;45.394;5.734;2022-10-16T13:38:19;97168.50;;;22.50;88.19
55289;BME280;41154;45.394;5.734;2022-10-16T13:40:56;97167.22;;;22.39;89.18
55289;BME280;41154;45.394;5.734;2022-10-16T13:43:36;97170.28;;;22.46;88.25
55289;BME280;41154;45.394;5.734;2022-10-16T13:46:06;97160.16;;;22.38;87.87
55289;BME280;41154;45.394;5.734;2022-10-16T13:48:33;97165.44;;;22.60;85.69
55289;BME280;41154;45.394;5.734;2022-10-16T13:51:18;97178.31;;;22.51;87.74
55289;BME280;41154;45.394;5.734;2022-10-16T13:53:45;97166.72;;;22.54;87.89
55289;BME280;41154;45.394;5.734;2022-10-16T13:56:17;97177.50;;;22.59;87.24
55289;BME280;41154;45.394;5.734;2022-10-16T13:58:44;97169.31;;;22.51;85.63
55289;BME280;41154;45.394;5.734;2022-10-16T14:01:23;97173.00;;;22.55;86.32
55289;BME280;41154;45.394;5.734;2022-10-16T14:03:51;97165.47;;;22.43;84.68
55289;BME280;41154;45.394;5.734;2022-10-16T14:06:20;97166.28;;;22.35;86.35
55289;BME280;41154;45.394;5.734;2022-10-16T14:09:00;97171.56;;;22.40;83.45
55289;BME280;41154;45.394;5.734;2022-10-16T14:11:27;97182.78;;;22.30;86.67
55289;BME280;41154;45.394;5.734;2022-10-16T14:13:53;97180.88;;;22.21;85.35
55289;BME280;41154;45.394;5.734;2022-10-16T14:16:22;97181.34;;;22.23;85.54
55289;BME280;41154;45.394;5.734;2022-10-16T14:19:00;97188.13;;;22.35;85.40
55289;BME280;41154;45.394;5.734;2022-10-16T14:21:27;97176.53;;;22.29;85.97
55289;BME280;41154;45.394;5.734;2022-10-16T14:23:54;97185.88;;;22.37;86.62
55289;BME280;41154;45.394;5.734;2022-10-16T14:26:23;97189.09;;;22.30;84.27
55289;BME280;41154;45.394;5.734;2022-10-16T14:29:03;97188.13;;;22.35;84.72
55289;BME280;41154;45.394;5.734;2022-10-16T14:31:35;97195.66;;;22.47;84.78
55289;BME280;41154;45.394;5.734;2022-10-16T14:34:03;97202.91;;;22.34;86.54
55289;BME280;41154;45.394;5.734;2022-10-16T14:36:30;97201.00;;;22.43;83.81
55289;BME280;41154;45.394;5.734;2022-10-16T14:41:24;97198.91;;;22.40;85.73
55289;BME280;41154;45.394;5.734;2022-10-16T14:43:53;97204.19;;;22.27;85.29